createdAt,value
2018-07-24T00:02:11.601Z,13.80
2018-07-24T00:11:00.960Z,13.80
2018-07-24T00:16:48.082Z,13.60
2018-07-24T00:26:05.485Z,13.70
2018-07-24T00:28:37.772Z,13.70
2018-07-24T00:40:44.997Z,13.50
2018-07-24T00:43:15.718Z,13.60
2018-07-24T00:45:46.206Z,13.50
2018-07-24T00:48:17.169Z,13.50
2018-07-24T00:52:24.095Z,13.40
2018-07-24T01:01:19.021Z,13.50
2018-07-24T01:22:47.544Z,13.20
2018-07-24T01:32:05.943Z,13.20
2018-07-24T01:38:00.625Z,13.30
2018-07-24T01:43:55.728Z,13.20
2018-07-24T01:46:27.278Z,13.30
2018-07-24T01:49:11.590Z,13.30
2018-07-24T01:52:06.518Z,13.20
2018-07-24T01:54:55.936Z,13.10
2018-07-24T01:57:26.149Z,13.10
2018-07-24T02:15:53.825Z,13.10
2018-07-24T02:24:57.499Z,12.90
2018-07-24T02:30:37.464Z,12.80
2018-07-24T02:33:07.624Z,12.90
2018-07-24T02:38:54.613Z,12.70
2018-07-24T02:41:35.966Z,12.80
2018-07-24T02:44:06.295Z,12.90
2018-07-24T02:46:36.508Z,12.80
2018-07-24T02:49:06.675Z,12.80
2018-07-24T02:51:36.792Z,13.00
2018-07-24T02:54:06.985Z,13.10
2018-07-24T02:56:37.072Z,13.10
2018-07-24T02:59:07.684Z,13.00
2018-07-24T03:01:37.796Z,13.20
2018-07-24T03:04:07.937Z,13.20
2018-07-24T03:06:38.060Z,13.20
2018-07-24T03:09:10.378Z,13.10
2018-07-24T03:11:40.564Z,13.10
2018-07-24T03:14:10.660Z,13.20
2018-07-24T03:16:40.762Z,13.10
2018-07-24T03:19:10.847Z,13.00
2018-07-24T03:21:40.973Z,13.10
2018-07-24T03:24:13.984Z,12.90
2018-07-24T03:26:44.116Z,13.00
2018-07-24T03:29:14.232Z,13.00
2018-07-24T03:31:44.426Z,12.90
2018-07-24T03:34:36.626Z,12.90
2018-07-24T03:37:33.846Z,13.00
2018-07-24T03:40:04.000Z,13.00
2018-07-24T03:42:34.096Z,13.10
2018-07-24T03:45:04.314Z,13.20
2018-07-24T03:47:34.356Z,13.20
2018-07-24T03:50:04.551Z,13.20
2018-07-24T03:52:34.964Z,13.20
2018-07-24T03:55:05.052Z,13.30
2018-07-24T03:57:35.140Z,13.40
2018-07-24T04:00:06.281Z,13.50
2018-07-24T04:02:36.377Z,13.70
2018-07-24T04:05:06.635Z,13.90
2018-07-24T04:07:36.705Z,14.30
2018-07-24T04:10:06.857Z,14.50
2018-07-24T04:12:36.941Z,14.80
2018-07-24T04:15:07.080Z,15.30
2018-07-24T04:17:37.141Z,15.80
2018-07-24T04:20:07.245Z,16.20
2018-07-24T04:22:37.345Z,16.20
2018-07-24T04:25:07.668Z,16.00
2018-07-24T04:27:37.936Z,15.80
2018-07-24T04:30:08.172Z,15.70
2018-07-24T04:32:38.314Z,15.90
2018-07-24T04:35:08.464Z,15.80
2018-07-24T04:37:38.560Z,16.30
2018-07-24T04:40:08.721Z,17.10
2018-07-24T04:42:38.820Z,17.60
2018-07-24T04:45:08.913Z,18.30
2018-07-24T04:47:39.032Z,18.90
2018-07-24T04:50:09.104Z,19.30
2018-07-24T04:52:39.204Z,19.90
2018-07-24T04:55:09.304Z,20.30
2018-07-24T04:57:39.392Z,20.60
2018-07-24T05:00:09.479Z,20.10
2018-07-24T05:02:39.591Z,19.50
2018-07-24T05:05:09.699Z,19.20
2018-07-24T05:07:39.772Z,19.20
2018-07-24T05:10:09.935Z,19.70
2018-07-24T05:12:40.005Z,19.80
2018-07-24T05:15:10.084Z,19.30
2018-07-24T05:17:40.161Z,19.50
2018-07-24T05:20:10.261Z,20.10
2018-07-24T05:22:40.397Z,20.80
2018-07-24T05:25:10.488Z,21.50
2018-07-24T05:27:40.656Z,22.10
2018-07-24T05:30:10.876Z,22.80
2018-07-24T05:32:40.972Z,23.00
2018-07-24T05:35:11.132Z,23.10
2018-07-24T05:37:41.384Z,22.90
2018-07-24T05:40:16.996Z,23.70
2018-07-24T05:42:47.132Z,24.20
2018-07-24T05:45:17.197Z,24.30
2018-07-24T05:47:47.300Z,24.50
2018-07-24T05:50:17.396Z,24.80
2018-07-24T05:52:47.483Z,25.60
2018-07-24T05:55:17.584Z,25.80
2018-07-24T05:57:47.680Z,26.10
2018-07-24T06:00:17.756Z,26.60
2018-07-24T06:02:47.849Z,26.70
2018-07-24T06:05:17.916Z,26.30
2018-07-24T06:07:48.001Z,25.70
2018-07-24T06:10:18.096Z,26.40
2018-07-24T06:12:48.206Z,26.40
2018-07-24T06:15:18.312Z,26.20
2018-07-24T06:17:48.407Z,26.50
2018-07-24T06:20:18.525Z,27.10
2018-07-24T06:22:48.592Z,26.90
2018-07-24T06:25:18.691Z,26.30
2018-07-24T06:27:48.803Z,27.30
2018-07-24T06:30:18.905Z,28.10
2018-07-24T06:32:49.001Z,28.30
2018-07-24T06:35:19.096Z,28.60
2018-07-24T06:37:49.210Z,29.20
2018-07-24T06:40:19.312Z,29.10
2018-07-24T06:42:49.424Z,28.70
2018-07-24T06:45:19.510Z,28.60
2018-07-24T06:47:49.599Z,29.30
2018-07-24T06:50:19.700Z,29.20
2018-07-24T06:52:49.872Z,29.80
2018-07-24T06:55:20.073Z,29.30
2018-07-24T06:57:50.207Z,29.00
2018-07-24T07:00:20.351Z,29.80
2018-07-24T07:02:50.418Z,29.90
2018-07-24T07:05:20.504Z,30.50
2018-07-24T07:07:50.572Z,30.80
2018-07-24T07:10:20.725Z,31.20
2018-07-24T07:12:50.761Z,31.20
2018-07-24T07:15:20.852Z,30.80
2018-07-24T07:17:50.962Z,31.00
2018-07-24T07:20:21.059Z,30.60
2018-07-24T07:22:51.190Z,30.20
2018-07-24T07:25:21.268Z,30.80
2018-07-24T07:27:51.419Z,30.90
2018-07-24T07:30:21.496Z,31.20
2018-07-24T07:32:51.576Z,31.20
2018-07-24T07:35:21.668Z,30.70
2018-07-24T07:37:51.767Z,31.50
2018-07-24T07:40:21.870Z,32.10
2018-07-24T07:42:51.948Z,32.30
2018-07-24T07:45:22.095Z,31.40
2018-07-24T07:47:52.118Z,31.10
2018-07-24T07:50:22.254Z,31.40
2018-07-24T07:52:52.317Z,31.60
2018-07-24T07:55:22.435Z,30.60
2018-07-24T07:57:52.531Z,31.30
2018-07-24T08:00:22.656Z,31.20
2018-07-24T08:02:53.171Z,30.50
2018-07-24T08:05:23.253Z,29.90
2018-07-24T08:07:53.372Z,29.30
2018-07-24T08:10:23.480Z,28.60
2018-07-24T08:12:53.569Z,28.30
2018-07-24T08:15:23.668Z,27.70
2018-07-24T08:17:53.745Z,27.90
2018-07-24T08:20:23.824Z,27.60
2018-07-24T08:22:53.951Z,27.30
2018-07-24T08:25:24.100Z,27.30
2018-07-24T08:27:54.259Z,27.00
2018-07-24T08:30:24.320Z,26.80
2018-07-24T08:32:54.408Z,26.60
2018-07-24T08:35:24.500Z,26.60
2018-07-24T08:37:54.636Z,27.20
2018-07-24T08:40:25.688Z,28.00
2018-07-24T08:42:55.798Z,28.50
2018-07-24T08:45:25.861Z,29.20
2018-07-24T08:47:56.707Z,29.60
2018-07-24T08:50:27.480Z,29.70
2018-07-24T08:52:57.697Z,30.30
2018-07-24T08:55:28.009Z,30.90
2018-07-24T08:57:57.832Z,30.50
2018-07-24T09:00:27.894Z,30.10
2018-07-24T09:02:58.017Z,29.80
2018-07-24T09:05:28.082Z,29.30
2018-07-24T09:07:58.167Z,29.20
2018-07-24T09:10:28.244Z,29.00
2018-07-24T09:12:58.319Z,28.20
2018-07-24T09:15:28.730Z,28.10
2018-07-24T09:17:58.784Z,28.00
2018-07-24T09:20:31.137Z,28.80
2018-07-24T09:23:02.716Z,29.40
2018-07-24T09:25:33.838Z,29.40
2018-07-24T09:28:04.810Z,29.20
2018-07-24T09:30:35.225Z,29.60
2018-07-24T09:33:05.336Z,29.20
2018-07-24T09:35:35.432Z,29.10
2018-07-24T09:38:05.624Z,29.20
2018-07-24T09:40:35.795Z,28.80
2018-07-24T09:43:05.869Z,28.40
2018-07-24T09:45:35.961Z,28.00
2018-07-24T09:48:06.101Z,27.50
2018-07-24T09:50:36.181Z,27.20
2018-07-24T09:53:06.296Z,26.90
2018-07-24T09:55:36.388Z,26.90
2018-07-24T09:58:06.586Z,27.10
2018-07-24T10:00:41.708Z,27.60
2018-07-24T10:03:11.781Z,28.10
2018-07-24T10:05:41.852Z,28.40
2018-07-24T10:08:11.968Z,28.70
2018-07-24T10:10:42.063Z,28.60
2018-07-24T10:13:12.802Z,27.90
2018-07-24T10:15:42.889Z,27.90
2018-07-24T10:18:12.975Z,27.90
2018-07-24T10:20:43.080Z,27.80
2018-07-24T10:23:13.144Z,28.00
2018-07-24T10:25:43.248Z,28.30
2018-07-24T10:28:13.355Z,28.50
2018-07-24T10:30:43.460Z,28.40
2018-07-24T10:33:13.580Z,28.20
2018-07-24T10:35:43.779Z,28.30
2018-07-24T10:38:13.880Z,28.00
2018-07-24T10:40:43.987Z,27.90
2018-07-24T10:43:14.147Z,27.90
2018-07-24T10:45:44.263Z,27.80
2018-07-24T10:48:14.479Z,27.80
2018-07-24T10:50:44.559Z,28.00
2018-07-24T10:53:14.795Z,28.20
2018-07-24T10:55:44.873Z,28.60
2018-07-24T10:58:15.029Z,28.50
2018-07-24T11:00:45.100Z,28.60
2018-07-24T11:03:15.209Z,28.80
2018-07-24T11:05:45.305Z,28.80
2018-07-24T11:08:15.388Z,28.80
2018-07-24T11:10:45.500Z,28.80
2018-07-24T11:13:15.568Z,28.50
2018-07-24T11:15:45.647Z,28.40
2018-07-24T11:18:15.737Z,28.20
2018-07-24T11:20:45.819Z,28.00
2018-07-24T11:23:16.049Z,27.70
2018-07-24T11:25:46.094Z,27.70
2018-07-24T11:28:16.210Z,27.50
2018-07-24T11:30:46.244Z,27.40
2018-07-24T11:33:16.364Z,27.40
2018-07-24T11:35:46.488Z,27.30
2018-07-24T11:38:16.543Z,27.70
2018-07-24T11:40:46.610Z,27.80
2018-07-24T11:43:16.687Z,28.10
2018-07-24T11:45:46.772Z,27.90
2018-07-24T11:48:16.836Z,28.00
2018-07-24T11:50:46.936Z,28.10
2018-07-24T11:53:17.032Z,27.90
2018-07-24T11:55:47.152Z,28.20
2018-07-24T11:58:17.220Z,28.40
2018-07-24T12:00:47.315Z,28.60
2018-07-24T12:03:17.431Z,28.80
2018-07-24T12:05:47.593Z,28.90
2018-07-24T12:08:17.704Z,29.00
2018-07-24T12:10:47.816Z,29.20
2018-07-24T12:13:17.884Z,29.40
2018-07-24T12:15:47.988Z,29.50
2018-07-24T12:18:18.084Z,29.30
2018-07-24T12:20:48.332Z,29.20
2018-07-24T12:23:18.495Z,28.90
2018-07-24T12:25:48.579Z,28.60
2018-07-24T12:28:18.655Z,28.40
2018-07-24T12:30:48.756Z,28.10
2018-07-24T12:33:18.839Z,27.90
2018-07-24T12:35:48.917Z,27.70
2018-07-24T12:38:18.992Z,27.40
2018-07-24T12:40:49.064Z,27.30
2018-07-24T12:43:19.424Z,27.30
2018-07-24T12:45:49.548Z,27.40
2018-07-24T12:48:19.703Z,27.50
2018-07-24T12:50:49.795Z,27.80
2018-07-24T12:53:19.873Z,28.10
2018-07-24T12:55:49.943Z,28.10
2018-07-24T12:58:20.045Z,28.00
2018-07-24T13:00:54.349Z,28.00
2018-07-24T13:03:24.443Z,27.90
2018-07-24T13:05:54.548Z,27.70
2018-07-24T13:08:24.697Z,27.50
2018-07-24T13:10:56.319Z,27.40
2018-07-24T13:13:26.328Z,27.20
2018-07-24T13:15:56.506Z,27.00
2018-07-24T13:18:26.634Z,26.80
2018-07-24T13:20:56.825Z,26.80
2018-07-24T13:23:27.072Z,26.80
2018-07-24T13:25:57.166Z,26.60
2018-07-24T13:28:27.616Z,26.60
2018-07-24T13:30:57.741Z,26.50
2018-07-24T13:33:28.028Z,26.40
2018-07-24T13:35:58.185Z,26.40
2018-07-24T13:38:28.272Z,26.30
2018-07-24T13:40:58.411Z,26.40
2018-07-24T13:43:28.472Z,26.50
2018-07-24T13:45:58.836Z,26.60
2018-07-24T13:48:28.857Z,26.80
2018-07-24T13:50:58.924Z,26.90
2018-07-24T13:53:28.985Z,27.10
2018-07-24T13:55:59.037Z,27.50
2018-07-24T13:58:29.112Z,27.80
2018-07-24T14:00:59.396Z,28.00
2018-07-24T14:03:29.504Z,28.10
2018-07-24T14:05:59.560Z,28.00
2018-07-24T14:08:29.684Z,28.00
2018-07-24T14:10:59.729Z,27.90
2018-07-24T14:13:29.800Z,27.60
2018-07-24T14:15:59.904Z,27.30
2018-07-24T14:18:30.024Z,27.10
2018-07-24T14:21:00.084Z,26.90
2018-07-24T14:23:30.148Z,26.70
2018-07-24T14:26:00.249Z,26.50
2018-07-24T14:28:30.311Z,26.50
2018-07-24T14:31:00.396Z,26.30
2018-07-24T14:33:30.453Z,26.10
2018-07-24T14:36:00.558Z,26.00
2018-07-24T14:38:30.639Z,26.00
2018-07-24T14:41:00.716Z,25.90
2018-07-24T14:43:30.800Z,25.70
2018-07-24T14:46:00.893Z,25.70
2018-07-24T14:48:31.420Z,25.80
2018-07-24T14:51:01.514Z,25.90
2018-07-24T14:53:31.584Z,26.00
2018-07-24T14:56:01.661Z,26.10
2018-07-24T14:58:31.773Z,26.30
2018-07-24T15:01:01.864Z,26.30
2018-07-24T15:03:31.956Z,26.50
2018-07-24T15:06:02.052Z,26.50
2018-07-24T15:08:32.171Z,26.60
2018-07-24T15:11:02.264Z,26.70
2018-07-24T15:13:32.392Z,26.70
2018-07-24T15:16:02.504Z,26.70
2018-07-24T15:18:32.612Z,26.70
2018-07-24T15:21:02.772Z,26.70
2018-07-24T15:23:32.868Z,26.70
2018-07-24T15:26:02.947Z,26.60
2018-07-24T15:28:33.034Z,26.70
2018-07-24T15:31:03.165Z,26.60
2018-07-24T15:33:33.260Z,26.50
2018-07-24T15:36:03.437Z,26.50
2018-07-24T15:38:33.533Z,26.50
2018-07-24T15:41:03.597Z,26.50
2018-07-24T15:43:33.736Z,26.50
2018-07-24T15:46:03.832Z,26.60
2018-07-24T15:48:33.941Z,26.60
2018-07-24T15:51:04.125Z,26.70
2018-07-24T15:53:34.241Z,26.60
2018-07-24T15:56:04.370Z,26.50
2018-07-24T15:58:34.440Z,26.30
2018-07-24T16:01:04.643Z,26.30
2018-07-24T16:03:34.772Z,26.20
2018-07-24T16:06:04.933Z,26.20
2018-07-24T16:08:34.951Z,26.10
2018-07-24T16:11:05.052Z,26.00
2018-07-24T16:13:35.133Z,25.90
2018-07-24T16:16:05.240Z,26.10
2018-07-24T16:18:35.304Z,26.00
2018-07-24T16:21:05.418Z,26.00
2018-07-24T16:23:35.728Z,26.10
2018-07-24T16:26:05.948Z,26.10
2018-07-24T16:28:36.055Z,26.00
2018-07-24T16:31:06.159Z,25.90
2018-07-24T16:33:36.273Z,25.90
2018-07-24T16:36:06.564Z,25.80
2018-07-24T16:38:36.848Z,25.90
2018-07-24T16:41:07.222Z,25.70
2018-07-24T16:43:37.336Z,25.60
2018-07-24T16:46:07.464Z,25.50
2018-07-24T16:48:37.548Z,25.50
2018-07-24T16:51:07.712Z,25.50
2018-07-24T16:53:37.797Z,25.40
2018-07-24T16:56:08.205Z,25.40
2018-07-24T16:58:38.259Z,25.30
2018-07-24T17:01:08.312Z,25.20
2018-07-24T17:03:38.443Z,25.30
2018-07-24T17:06:08.664Z,25.10
2018-07-24T17:08:38.760Z,25.00
2018-07-24T17:11:08.959Z,25.00
2018-07-24T17:13:39.096Z,24.90
2018-07-24T17:16:09.128Z,24.80
2018-07-24T17:18:39.192Z,24.90
2018-07-24T17:21:09.273Z,24.80
2018-07-24T17:23:39.413Z,24.60
2018-07-24T17:26:09.694Z,24.60
2018-07-24T17:28:39.793Z,24.50
2018-07-24T17:31:09.922Z,24.30
2018-07-24T17:33:40.052Z,24.20
2018-07-24T17:36:10.108Z,24.10
2018-07-24T17:38:40.184Z,24.00
2018-07-24T17:41:10.281Z,23.90
2018-07-24T17:43:40.344Z,23.80
2018-07-24T17:46:10.489Z,23.60
2018-07-24T17:48:40.628Z,23.60
2018-07-24T17:51:10.705Z,23.50
2018-07-24T17:53:40.824Z,23.40
2018-07-24T17:56:11.024Z,23.20
2018-07-24T17:58:41.344Z,23.10
2018-07-24T18:01:12.011Z,23.00
2018-07-24T18:03:42.440Z,22.80
2018-07-24T18:06:13.141Z,22.70
2018-07-24T18:08:43.564Z,22.50
2018-07-24T18:11:14.091Z,22.40
2018-07-24T18:13:44.342Z,22.20
2018-07-24T18:16:15.021Z,22.10
2018-07-24T18:18:45.464Z,22.00
2018-07-24T18:21:16.109Z,21.80
2018-07-24T18:23:46.170Z,21.60
2018-07-24T18:26:16.524Z,21.50
2018-07-24T18:28:48.217Z,21.30
2018-07-24T18:31:18.816Z,21.10
2018-07-24T18:33:49.337Z,21.00
2018-07-24T18:36:19.944Z,20.80
2018-07-24T18:38:50.772Z,20.60
2018-07-24T18:41:21.259Z,20.40
2018-07-24T18:43:52.088Z,20.30
2018-07-24T18:46:22.184Z,20.20
2018-07-24T18:48:52.456Z,20.10
2018-07-24T18:51:22.687Z,19.90
2018-07-24T18:53:53.302Z,19.80
2018-07-24T18:56:24.024Z,19.70
2018-07-24T18:58:54.667Z,19.60
2018-07-24T19:01:25.113Z,19.60
2018-07-24T19:03:55.476Z,19.50
2018-07-24T19:06:25.952Z,19.40
2018-07-24T19:08:56.564Z,19.40
2018-07-24T19:11:26.989Z,19.50
2018-07-24T19:13:57.588Z,19.60
2018-07-24T19:16:27.949Z,19.60
2018-07-24T19:18:58.464Z,19.50
2018-07-24T19:21:29.096Z,19.50
2018-07-24T19:23:59.264Z,19.40
2018-07-24T19:26:29.794Z,19.30
2018-07-24T19:29:00.464Z,19.30
2018-07-24T19:31:31.157Z,19.20
2018-07-24T19:34:01.616Z,19.10
2018-07-24T19:36:32.580Z,19.00
2018-07-24T19:39:02.793Z,18.90
2018-07-24T19:41:33.712Z,18.70
2018-07-24T19:44:04.575Z,18.70
2018-07-24T19:46:34.859Z,18.60
2018-07-24T19:49:05.907Z,18.50
2018-07-24T19:51:36.020Z,18.50
2018-07-24T19:54:06.383Z,18.40
2018-07-24T19:56:36.880Z,18.40
2018-07-24T19:59:07.527Z,18.30
2018-07-24T20:01:37.720Z,18.30
2018-07-24T20:04:07.844Z,18.20
2018-07-24T20:06:38.008Z,18.20
2018-07-24T20:09:11.429Z,18.20
2018-07-24T20:11:41.552Z,18.20
2018-07-24T20:14:11.689Z,18.20
2018-07-24T20:16:41.788Z,18.30
2018-07-24T20:19:11.887Z,18.30
2018-07-24T20:21:41.999Z,18.20
2018-07-24T20:24:12.270Z,18.20
2018-07-24T20:26:42.428Z,18.10
2018-07-24T20:29:12.547Z,18.10
2018-07-24T20:31:42.645Z,18.00
2018-07-24T20:34:12.724Z,17.90
2018-07-24T20:36:42.827Z,17.80
2018-07-24T20:39:13.441Z,17.70
2018-07-24T20:41:43.569Z,17.70
2018-07-24T20:44:13.619Z,17.60
2018-07-24T20:46:43.796Z,17.60
2018-07-24T20:49:13.917Z,17.50
2018-07-24T20:51:44.118Z,17.40
2018-07-24T20:54:20.744Z,17.40
2018-07-24T20:56:50.842Z,17.30
2018-07-24T21:22:23.090Z,16.90
2018-07-24T21:34:39.418Z,17.00
2018-07-24T21:46:56.914Z,16.70
2018-07-24T21:49:29.510Z,16.70
2018-07-24T23:01:01.938Z,15.10
2018-07-24T23:10:07.844Z,14.90
2018-07-24T23:12:38.240Z,14.80
2018-07-24T23:15:08.757Z,14.80
2018-07-24T23:17:39.238Z,14.80
2018-07-24T23:20:09.766Z,14.70
2018-07-24T23:22:39.964Z,14.60
2018-07-24T23:25:10.059Z,14.60
2018-07-24T23:27:40.200Z,14.50
2018-07-24T23:30:10.316Z,14.60
2018-07-24T23:32:40.437Z,14.60
2018-07-24T23:35:10.589Z,14.70
2018-07-24T23:37:40.703Z,14.60
2018-07-24T23:40:10.828Z,14.50
2018-07-24T23:42:40.937Z,14.50
2018-07-24T23:45:11.120Z,14.40
2018-07-24T23:47:41.240Z,14.50
2018-07-24T23:50:11.376Z,14.30
2018-07-24T23:52:41.489Z,14.30
2018-07-24T23:55:21.382Z,14.30
2018-07-24T23:57:51.845Z,14.30
